createdAt,value
2022-10-12T00:01:11.942Z,97.43
2022-10-12T00:03:41.012Z,98.23
2022-10-12T00:06:16.200Z,98.69
2022-10-12T00:08:45.297Z,99.70
2022-10-12T00:11:18.529Z,99.50
2022-10-12T00:13:46.989Z,98.63
2022-10-12T00:16:16.663Z,98.21
2022-10-12T00:18:44.279Z,98.41
2022-10-12T00:21:16.875Z,97.13
2022-10-12T00:23:45.960Z,96.99
2022-10-12T00:26:20.777Z,97.37
2022-10-12T00:28:54.526Z,97.23
2022-10-12T00:31:22.260Z,97.26
2022-10-12T00:33:49.739Z,97.76
2022-10-12T00:36:22.286Z,97.68
2022-10-12T00:38:52.422Z,96.28
2022-10-12T00:41:23.813Z,94.42
2022-10-12T00:43:57.622Z,92.49
2022-10-12T00:46:46.123Z,91.80
2022-10-12T00:49:23.681Z,92.37
2022-10-12T00:51:57.784Z,92.74
2022-10-12T00:54:31.387Z,92.46
2022-10-12T00:57:01.580Z,93.16
2022-10-12T00:59:34.320Z,92.51
2022-10-12T01:02:02.900Z,93.39
2022-10-12T01:04:32.979Z,94.57
2022-10-12T01:07:01.412Z,95.33
2022-10-12T01:09:30.005Z,95.24
2022-10-12T01:11:58.981Z,95.31
2022-10-12T01:14:26.652Z,95.42
2022-10-12T01:17:21.237Z,95.48
2022-10-12T01:20:17.210Z,95.67
2022-10-12T01:23:06.093Z,96.75
2022-10-12T01:25:48.932Z,98.19
2022-10-12T01:28:59.255Z,99.49
2022-10-12T01:31:40.981Z,100.00
2022-10-12T01:34:24.313Z,100.00
2022-10-12T01:37:22.242Z,100.00
2022-10-12T01:39:54.841Z,99.93
2022-10-12T01:42:28.519Z,100.00
2022-10-12T01:45:09.165Z,100.00
2022-10-12T01:47:40.540Z,100.00
2022-10-12T01:50:12.329Z,100.00
2022-10-12T01:52:57.914Z,100.00
2022-10-12T01:55:44.321Z,100.00
2022-10-12T01:58:51.539Z,100.00
2022-10-12T02:01:46.407Z,100.00
2022-10-12T02:04:33.101Z,100.00
2022-10-12T02:07:09.961Z,100.00
2022-10-12T02:09:39.983Z,100.00
2022-10-12T02:12:19.031Z,100.00
2022-10-12T02:14:56.099Z,100.00
2022-10-12T02:17:24.080Z,100.00
2022-10-12T02:20:00.493Z,100.00
2022-10-12T02:22:35.802Z,100.00
2022-10-12T02:25:09.022Z,100.00
2022-10-12T02:27:41.989Z,100.00
2022-10-12T02:30:13.630Z,100.00
2022-10-12T02:33:08.506Z,100.00
2022-10-12T02:35:44.062Z,100.00
2022-10-12T02:38:38.539Z,100.00
2022-10-12T02:41:12.923Z,100.00
2022-10-12T02:43:53.255Z,100.00
2022-10-12T02:46:23.457Z,100.00
2022-10-12T02:48:54.855Z,100.00
2022-10-12T02:51:24.545Z,100.00
2022-10-12T02:53:53.347Z,100.00
2022-10-12T02:56:21.492Z,100.00
2022-10-12T02:58:49.382Z,100.00
2022-10-12T03:01:18.649Z,100.00
2022-10-12T03:03:47.928Z,100.00
2022-10-12T03:06:15.990Z,100.00
2022-10-12T03:08:43.351Z,100.00
2022-10-12T03:11:14.685Z,100.00
2022-10-12T03:13:42.071Z,100.00
2022-10-12T03:16:11.638Z,100.00
2022-10-12T03:18:40.325Z,100.00
2022-10-12T03:21:10.858Z,100.00
2022-10-12T03:23:38.455Z,100.00
2022-10-12T03:26:06.222Z,100.00
2022-10-12T03:28:33.743Z,100.00
2022-10-12T03:31:01.380Z,100.00
2022-10-12T03:33:29.753Z,100.00
2022-10-12T03:35:57.715Z,100.00
2022-10-12T03:38:27.664Z,100.00
2022-10-12T03:40:55.485Z,100.00
2022-10-12T03:43:23.336Z,100.00
2022-10-12T03:45:50.815Z,100.00
2022-10-12T03:48:19.824Z,98.94
2022-10-12T03:50:51.461Z,99.02
2022-10-12T03:53:20.700Z,98.52
2022-10-12T03:55:48.079Z,97.29
2022-10-12T03:58:15.951Z,96.60
2022-10-12T04:00:43.580Z,96.54
2022-10-12T04:03:12.919Z,96.23
2022-10-12T04:05:41.007Z,96.52
2022-10-12T04:08:08.469Z,95.86
2022-10-12T04:10:35.674Z,95.46
2022-10-12T04:13:03.950Z,96.19
2022-10-12T04:15:33.722Z,95.71
2022-10-12T04:18:03.217Z,96.64
2022-10-12T04:20:30.647Z,96.17
2022-10-12T04:22:58.135Z,97.47
2022-10-12T04:25:29.959Z,98.37
2022-10-12T04:27:58.977Z,98.83
2022-10-12T04:30:28.108Z,99.54
2022-10-12T04:32:56.624Z,99.85
2022-10-12T04:35:24.540Z,100.00
2022-10-12T04:37:53.121Z,100.00
2022-10-12T04:40:21.143Z,100.00
2022-10-12T04:42:49.326Z,99.95
2022-10-12T04:45:16.677Z,100.00
2022-10-12T04:47:43.956Z,100.00
2022-10-12T04:50:12.278Z,100.00
2022-10-12T04:52:39.624Z,100.00
2022-10-12T04:55:08.313Z,100.00
2022-10-12T04:57:37.152Z,99.93
2022-10-12T05:00:06.227Z,98.92
2022-10-12T05:02:34.228Z,98.30
2022-10-12T05:05:01.821Z,97.81
2022-10-12T05:07:30.151Z,97.37
2022-10-12T05:09:57.521Z,96.75
2022-10-12T05:12:26.340Z,97.10
2022-10-12T05:14:53.724Z,97.93
2022-10-12T05:17:21.561Z,97.20
2022-10-12T05:19:51.206Z,95.89
2022-10-12T05:22:18.889Z,95.63
2022-10-12T05:24:48.975Z,97.39
2022-10-12T05:27:21.115Z,98.58
2022-10-12T05:29:48.673Z,99.05
2022-10-12T05:32:17.416Z,99.62
2022-10-12T05:34:44.821Z,99.48
2022-10-12T05:37:12.699Z,100.00
2022-10-12T05:39:39.976Z,100.00
2022-10-12T05:42:08.218Z,100.00
2022-10-12T05:44:35.668Z,100.00
2022-10-12T05:47:03.763Z,100.00
2022-10-12T05:49:31.133Z,100.00
2022-10-12T05:51:58.427Z,100.00
2022-10-12T05:54:25.971Z,100.00
2022-10-12T05:56:54.796Z,100.00
2022-10-12T05:59:22.529Z,100.00
2022-10-12T06:01:50.507Z,100.00
2022-10-12T06:04:18.418Z,100.00
2022-10-12T06:06:47.530Z,100.00
2022-10-12T06:09:14.880Z,100.00
2022-10-12T06:11:44.532Z,100.00
2022-10-12T06:14:12.758Z,100.00
2022-10-12T06:16:40.290Z,100.00
2022-10-12T06:19:11.066Z,100.00
2022-10-12T06:21:39.059Z,100.00
2022-10-12T06:24:06.450Z,100.00
2022-10-12T06:26:34.274Z,100.00
2022-10-12T06:29:02.107Z,100.00
2022-10-12T06:31:30.677Z,100.00
2022-10-12T06:33:59.875Z,100.00
2022-10-12T06:36:27.449Z,100.00
2022-10-12T06:38:55.219Z,100.00
2022-10-12T06:41:23.877Z,99.39
2022-10-12T06:43:52.359Z,97.73
2022-10-12T06:46:20.291Z,96.62
2022-10-12T06:48:47.682Z,95.82
2022-10-12T06:51:14.946Z,96.57
2022-10-12T06:53:42.092Z,96.98
2022-10-12T06:56:10.893Z,97.44
2022-10-12T06:58:39.614Z,97.21
2022-10-12T07:01:10.842Z,97.09
2022-10-12T07:05:14.700Z,97.42
2022-10-12T07:07:43.171Z,97.78
2022-10-12T07:10:10.681Z,96.71
2022-10-12T07:12:39.776Z,96.71
2022-10-12T07:15:08.115Z,96.57
2022-10-12T07:17:35.819Z,95.43
2022-10-12T07:20:08.979Z,92.62
2022-10-12T07:22:36.423Z,88.05
2022-10-12T07:25:03.826Z,82.19
2022-10-12T07:27:32.752Z,75.31
2022-10-12T07:30:00.615Z,73.93
2022-10-12T07:32:28.982Z,71.61
2022-10-12T07:34:56.406Z,69.79
2022-10-12T07:37:23.875Z,66.90
2022-10-12T07:39:57.115Z,64.09
2022-10-12T07:42:25.966Z,60.84
2022-10-12T07:44:54.112Z,59.53
2022-10-12T07:47:25.513Z,58.97
2022-10-12T07:49:52.915Z,58.65
2022-10-12T07:52:20.290Z,57.72
2022-10-12T07:54:47.790Z,57.25
2022-10-12T07:57:15.902Z,56.86
2022-10-12T07:59:44.265Z,57.33
2022-10-12T08:02:12.496Z,57.01
2022-10-12T08:04:41.272Z,55.43
2022-10-12T08:07:08.827Z,54.01
2022-10-12T08:09:37.571Z,53.13
2022-10-12T08:12:05.280Z,51.84
2022-10-12T08:14:33.095Z,51.81
2022-10-12T08:17:00.444Z,50.40
2022-10-12T08:19:33.019Z,48.93
2022-10-12T08:22:03.435Z,48.65
2022-10-12T08:24:31.338Z,49.60
2022-10-12T08:27:01.382Z,50.81
2022-10-12T08:29:29.082Z,50.70
2022-10-12T08:31:57.032Z,49.73
2022-10-12T08:34:25.437Z,49.24
2022-10-12T08:36:53.157Z,49.01
2022-10-12T08:39:21.192Z,48.27
2022-10-12T08:42:12.207Z,48.03
2022-10-12T08:45:13.256Z,47.38
2022-10-12T08:47:45.782Z,47.59
2022-10-12T08:50:48.805Z,46.82
2022-10-12T08:53:25.802Z,47.62
2022-10-12T08:55:54.321Z,48.15
2022-10-12T08:58:32.300Z,47.41
2022-10-12T09:01:29.673Z,47.73
2022-10-12T09:04:22.720Z,48.46
2022-10-12T09:07:08.420Z,48.85
2022-10-12T09:09:56.062Z,48.87
2022-10-12T09:12:51.319Z,49.54
2022-10-12T09:15:25.476Z,49.44
2022-10-12T09:17:56.122Z,49.59
2022-10-12T09:20:35.319Z,50.76
2022-10-12T09:23:17.811Z,51.17
2022-10-12T09:25:46.549Z,51.19
2022-10-12T09:28:21.711Z,50.80
2022-10-12T09:31:18.305Z,50.78
2022-10-12T09:34:00.102Z,50.72
2022-10-12T09:36:48.526Z,50.77
2022-10-12T09:39:23.500Z,50.70
2022-10-12T09:41:54.886Z,50.67
2022-10-12T09:44:32.470Z,50.75
2022-10-12T09:47:02.543Z,50.88
2022-10-12T09:49:47.247Z,51.36
2022-10-12T09:52:18.463Z,51.68
2022-10-12T09:54:54.187Z,51.63
2022-10-12T09:57:27.242Z,51.55
2022-10-12T09:59:56.435Z,51.08
2022-10-12T10:02:26.511Z,51.04
2022-10-12T10:05:24.517Z,50.86
2022-10-12T10:07:54.817Z,50.27
2022-10-12T10:10:30.086Z,50.74
2022-10-12T10:13:03.052Z,50.78
2022-10-12T10:15:44.941Z,50.90
2022-10-12T10:18:48.172Z,51.62
2022-10-12T10:21:27.177Z,52.33
2022-10-12T10:24:12.469Z,52.68
2022-10-12T10:27:05.326Z,52.80
2022-10-12T10:29:43.247Z,52.83
2022-10-12T10:32:27.404Z,53.02
2022-10-12T10:35:17.750Z,53.08
2022-10-12T10:37:48.383Z,53.18
2022-10-12T10:40:23.320Z,52.89
2022-10-12T10:42:57.973Z,52.53
2022-10-12T10:45:29.536Z,52.61
2022-10-12T10:48:01.639Z,52.47
2022-10-12T10:50:36.667Z,52.89
2022-10-12T10:53:08.118Z,54.08
2022-10-12T10:56:01.411Z,55.77
2022-10-12T10:58:39.952Z,56.49
2022-10-12T11:01:29.501Z,56.73
2022-10-12T11:04:04.488Z,57.15
2022-10-12T11:06:45.995Z,57.71
2022-10-12T11:09:26.533Z,57.40
2022-10-12T11:12:06.511Z,56.79
2022-10-12T11:14:44.094Z,56.65
2022-10-12T11:17:36.114Z,56.73
2022-10-12T11:20:35.159Z,57.25
2022-10-12T11:23:18.919Z,57.55
2022-10-12T11:26:02.918Z,57.55
2022-10-12T11:28:33.797Z,57.29
2022-10-12T11:31:02.735Z,57.16
2022-10-12T11:33:38.643Z,56.72
2022-10-12T11:36:19.585Z,56.05
2022-10-12T11:38:59.433Z,55.16
2022-10-12T11:41:44.970Z,55.01
2022-10-12T11:44:32.342Z,55.03
2022-10-12T11:47:12.806Z,54.87
2022-10-12T11:49:58.159Z,54.76
2022-10-12T11:52:36.305Z,55.06
2022-10-12T11:55:28.741Z,54.16
2022-10-12T11:58:08.724Z,52.41
2022-10-12T12:00:40.531Z,51.55
2022-10-12T12:03:43.911Z,51.96
2022-10-12T12:06:29.645Z,52.94
2022-10-12T12:09:03.714Z,52.69
2022-10-12T12:11:33.942Z,52.93
2022-10-12T12:14:26.215Z,53.32
2022-10-12T12:17:18.912Z,54.02
2022-10-12T12:19:54.932Z,54.84
2022-10-12T12:22:26.611Z,55.19
2022-10-12T12:25:27.695Z,53.22
2022-10-12T12:27:57.524Z,53.35
2022-10-12T12:30:29.003Z,53.88
2022-10-12T12:33:04.756Z,53.70
2022-10-12T12:35:50.327Z,54.31
2022-10-12T12:38:20.933Z,54.57
2022-10-12T12:41:19.202Z,53.99
2022-10-12T12:44:04.242Z,55.48
2022-10-12T12:46:56.580Z,55.61
2022-10-12T12:49:47.783Z,56.05
2022-10-12T12:52:24.521Z,56.38
2022-10-12T12:54:56.139Z,55.74
2022-10-12T12:57:26.489Z,55.44
2022-10-12T13:00:16.118Z,55.19
2022-10-12T13:03:07.990Z,55.87
2022-10-12T13:06:03.544Z,56.11
2022-10-12T13:09:02.504Z,55.58
2022-10-12T13:11:31.391Z,55.25
2022-10-12T13:13:59.894Z,55.00
2022-10-12T13:17:30.548Z,54.45
2022-10-12T13:19:37.426Z,53.69
2022-10-12T13:22:15.241Z,53.62
2022-10-12T13:24:50.408Z,53.30
2022-10-12T13:27:34.478Z,53.87
2022-10-12T13:30:25.498Z,55.06
2022-10-12T13:32:57.940Z,55.57
2022-10-12T13:35:34.260Z,55.84
2022-10-12T13:38:21.863Z,56.21
2022-10-12T13:40:54.195Z,56.29
2022-10-12T13:43:54.167Z,56.41
2022-10-12T13:47:05.384Z,56.04
2022-10-12T13:49:42.793Z,56.09
2022-10-12T13:52:13.898Z,56.71
2022-10-12T13:54:44.034Z,56.76
2022-10-12T13:57:50.560Z,56.83
2022-10-12T14:00:22.761Z,56.68
2022-10-12T14:03:02.872Z,56.74
2022-10-12T14:05:33.735Z,55.51
2022-10-12T14:08:15.856Z,55.48
2022-10-12T14:10:46.803Z,54.80
2022-10-12T14:13:20.934Z,55.53
2022-10-12T14:15:49.432Z,55.25
2022-10-12T14:18:43.418Z,55.92
2022-10-12T14:21:18.483Z,56.30
2022-10-12T14:24:00.332Z,56.50
2022-10-12T14:26:35.219Z,56.05
2022-10-12T14:29:45.383Z,56.71
2022-10-12T14:32:12.984Z,56.15
2022-10-12T14:34:46.565Z,55.90
2022-10-12T14:37:16.627Z,55.96
2022-10-12T14:39:46.400Z,55.92
2022-10-12T14:42:29.788Z,55.79
2022-10-12T14:44:59.058Z,56.42
2022-10-12T14:47:41.775Z,56.74
2022-10-12T14:50:18.095Z,56.86
2022-10-12T14:52:48.594Z,56.60
2022-10-12T14:55:19.346Z,56.66
2022-10-12T14:57:48.150Z,57.16
2022-10-12T15:00:22.492Z,57.37
2022-10-12T15:02:51.598Z,57.95
2022-10-12T15:05:22.489Z,58.16
2022-10-12T15:07:52.931Z,58.68
2022-10-12T15:10:22.960Z,59.04
2022-10-12T15:12:51.278Z,58.98
2022-10-12T15:15:42.425Z,59.34
2022-10-12T15:18:10.405Z,59.89
2022-10-12T15:20:38.898Z,60.47
2022-10-12T15:23:07.981Z,60.67
2022-10-12T15:25:35.255Z,60.61
2022-10-12T15:28:05.248Z,61.50
2022-10-12T15:30:34.292Z,61.73
2022-10-12T15:33:02.059Z,61.23
2022-10-12T15:35:34.565Z,61.78
2022-10-12T15:38:02.118Z,61.74
2022-10-12T15:40:31.711Z,61.85
2022-10-12T15:43:00.746Z,62.02
2022-10-12T15:45:32.892Z,62.01
2022-10-12T15:48:01.704Z,62.71
2022-10-12T15:50:34.474Z,63.10
2022-10-12T15:53:04.065Z,63.37
2022-10-12T15:55:31.974Z,63.95
2022-10-12T15:58:00.432Z,64.31
2022-10-12T16:00:29.664Z,64.18
2022-10-12T16:02:59.885Z,64.62
2022-10-12T16:05:36.986Z,65.06
2022-10-12T16:08:06.089Z,65.19
2022-10-12T16:10:37.154Z,65.40
2022-10-12T16:13:07.092Z,66.13
2022-10-12T16:15:36.723Z,66.13
2022-10-12T16:18:05.848Z,65.74
2022-10-12T16:20:37.592Z,66.17
2022-10-12T16:23:14.379Z,66.92
2022-10-12T16:25:43.754Z,66.83
2022-10-12T16:28:12.734Z,66.79
2022-10-12T16:30:42.358Z,67.35
2022-10-12T16:33:11.311Z,67.64
2022-10-12T16:35:42.060Z,68.00
2022-10-12T16:38:09.948Z,68.14
2022-10-12T16:40:43.777Z,68.21
2022-10-12T16:43:12.423Z,68.90
2022-10-12T16:45:39.818Z,69.58
2022-10-12T16:48:07.732Z,70.11
2022-10-12T16:50:39.977Z,70.42
2022-10-12T16:53:08.757Z,71.05
2022-10-12T16:55:38.975Z,71.46
2022-10-12T16:58:08.804Z,71.31
2022-10-12T17:00:36.889Z,71.65
2022-10-12T17:03:05.616Z,71.82
2022-10-12T17:05:32.989Z,72.23
2022-10-12T17:08:02.328Z,72.76
2022-10-12T17:10:29.837Z,72.56
2022-10-12T17:12:57.666Z,73.33
2022-10-12T17:15:25.079Z,73.74
2022-10-12T17:17:54.122Z,74.19
2022-10-12T17:20:21.715Z,74.62
2022-10-12T17:22:49.933Z,74.95
2022-10-12T17:25:17.775Z,75.62
2022-10-12T17:27:47.500Z,76.35
2022-10-12T17:30:16.123Z,76.69
2022-10-12T17:32:43.954Z,77.40
2022-10-12T17:35:11.915Z,78.06
2022-10-12T17:37:42.801Z,78.78
2022-10-12T17:40:11.582Z,78.71
2022-10-12T17:42:39.436Z,79.07
2022-10-12T17:45:07.804Z,79.30
2022-10-12T17:47:35.313Z,78.65
2022-10-12T17:50:04.702Z,78.56
2022-10-12T17:52:37.912Z,78.52
2022-10-12T17:55:09.420Z,79.17
2022-10-12T17:57:43.419Z,79.51
2022-10-12T18:00:11.787Z,79.20
2022-10-12T18:02:40.745Z,79.10
2022-10-12T18:05:10.082Z,79.72
2022-10-12T18:07:40.707Z,80.07
2022-10-12T18:10:09.062Z,80.80
2022-10-12T18:12:36.901Z,81.05
2022-10-12T18:15:07.461Z,81.86
2022-10-12T18:17:35.598Z,81.79
2022-10-12T18:20:04.978Z,81.85
2022-10-12T18:22:33.568Z,81.56
2022-10-12T18:25:00.923Z,82.42
2022-10-12T18:27:29.287Z,82.67
2022-10-12T18:29:56.654Z,83.11
2022-10-12T18:32:26.480Z,82.95
2022-10-12T18:34:55.128Z,82.83
2022-10-12T18:37:22.553Z,83.15
2022-10-12T18:39:49.858Z,83.16
2022-10-12T18:42:17.687Z,84.05
2022-10-12T18:44:45.661Z,84.96
2022-10-12T18:47:13.106Z,85.36
2022-10-12T18:49:40.665Z,85.93
2022-10-12T18:52:08.122Z,85.74
2022-10-12T18:54:35.524Z,85.92
2022-10-12T18:57:04.261Z,85.47
2022-10-12T18:59:32.311Z,85.51
2022-10-12T19:02:01.568Z,85.23
2022-10-12T19:04:28.953Z,85.84
2022-10-12T19:06:57.995Z,85.66
2022-10-12T19:09:25.464Z,86.53
2022-10-12T19:11:55.899Z,86.21
2022-10-12T19:14:24.863Z,86.91
2022-10-12T19:16:52.540Z,86.52
2022-10-12T19:19:21.684Z,86.85
2022-10-12T19:21:51.322Z,86.83
2022-10-12T19:24:20.842Z,87.07
2022-10-12T19:26:48.751Z,87.15
2022-10-12T19:29:17.236Z,86.78
2022-10-12T19:31:48.350Z,86.25
2022-10-12T19:34:18.327Z,86.32
2022-10-12T19:36:46.201Z,85.88
2022-10-12T19:39:16.957Z,86.08
2022-10-12T19:41:48.885Z,85.47
2022-10-12T19:44:20.795Z,85.42
2022-10-12T19:46:49.253Z,85.53
2022-10-12T19:49:18.135Z,85.35
2022-10-12T19:51:45.710Z,85.87
2022-10-12T19:54:14.603Z,85.93
2022-10-12T19:56:42.353Z,86.44
2022-10-12T19:59:09.898Z,85.58
2022-10-12T20:01:39.450Z,85.63
2022-10-12T20:04:10.122Z,85.74
2022-10-12T20:06:38.659Z,86.14
2022-10-12T20:09:10.043Z,86.78
2022-10-12T20:11:38.826Z,87.23
2022-10-12T20:14:07.204Z,87.31
2022-10-12T20:16:36.995Z,88.03
2022-10-12T20:19:05.694Z,87.49
2022-10-12T20:21:33.241Z,86.81
2022-10-12T20:24:02.680Z,87.62
2022-10-12T20:26:31.044Z,87.35
2022-10-12T20:28:58.556Z,87.39
2022-10-12T20:31:27.667Z,87.41
2022-10-12T20:33:56.676Z,87.98
2022-10-12T20:36:28.604Z,88.66
2022-10-12T20:38:58.068Z,88.86
2022-10-12T20:41:26.404Z,87.77
2022-10-12T20:43:56.704Z,87.53
2022-10-12T20:46:27.297Z,87.99
2022-10-12T20:48:59.465Z,87.98
2022-10-12T20:51:32.340Z,88.61
2022-10-12T20:54:02.491Z,88.54
2022-10-12T20:56:31.691Z,88.70
2022-10-12T20:59:00.654Z,88.34
2022-10-12T21:01:29.498Z,88.60
2022-10-12T21:03:57.333Z,88.78
2022-10-12T21:06:25.153Z,88.74
2022-10-12T21:08:56.280Z,87.92
2022-10-12T21:11:24.898Z,87.45
2022-10-12T21:13:52.432Z,88.53
2022-10-12T21:16:20.672Z,88.15
2022-10-12T21:18:48.284Z,87.62
2022-10-12T21:21:18.839Z,88.12
2022-10-12T21:23:58.269Z,87.22
2022-10-12T21:26:30.184Z,88.08
2022-10-12T21:29:00.797Z,88.25
2022-10-12T21:31:32.297Z,88.67
2022-10-12T21:34:04.774Z,88.62
2022-10-12T21:36:35.619Z,87.79
2022-10-12T21:39:08.119Z,87.26
2022-10-12T21:41:36.978Z,86.95
2022-10-12T21:44:06.728Z,87.50
2022-10-12T21:46:35.626Z,87.29
2022-10-12T21:49:08.018Z,87.59
2022-10-12T21:51:37.743Z,87.72
2022-10-12T21:54:06.974Z,87.90
2022-10-12T21:56:37.124Z,88.33
2022-10-12T21:59:05.817Z,88.59
2022-10-12T22:01:38.608Z,88.87
2022-10-12T22:04:13.581Z,88.05
2022-10-12T22:06:44.234Z,87.52
2022-10-12T22:09:17.000Z,87.98
2022-10-12T22:11:46.714Z,88.80
2022-10-12T22:14:16.235Z,88.68
2022-10-12T22:16:45.810Z,89.62
2022-10-12T22:19:19.044Z,89.98
2022-10-12T22:21:52.598Z,90.74
2022-10-12T22:24:27.779Z,90.09
2022-10-12T22:26:55.975Z,91.15
2022-10-12T22:29:23.681Z,91.16
2022-10-12T22:31:53.089Z,90.79
2022-10-12T22:34:20.531Z,91.67
2022-10-12T22:36:49.043Z,91.85
2022-10-12T22:39:25.541Z,92.33
2022-10-12T22:41:54.551Z,91.70
2022-10-12T22:44:22.312Z,91.73
2022-10-12T22:46:54.779Z,92.54
2022-10-12T22:49:23.415Z,92.34
2022-10-12T22:51:50.851Z,92.30
2022-10-12T22:54:20.921Z,92.87
2022-10-12T22:56:51.559Z,92.85
2022-10-12T22:59:20.254Z,94.10
2022-10-12T23:01:48.073Z,93.62
2022-10-12T23:04:16.299Z,94.26
2022-10-12T23:06:43.738Z,94.96
2022-10-12T23:09:13.134Z,95.12
2022-10-12T23:11:41.020Z,95.19
2022-10-12T23:14:11.004Z,94.51
2022-10-12T23:16:38.816Z,95.13
2022-10-12T23:19:06.305Z,95.94
2022-10-12T23:21:34.687Z,96.41
2022-10-12T23:24:05.705Z,96.07
2022-10-12T23:26:33.935Z,95.63
2022-10-12T23:29:02.392Z,95.94
2022-10-12T23:31:30.763Z,96.38
2022-10-12T23:33:59.933Z,96.74
2022-10-12T23:36:28.093Z,96.62
2022-10-12T23:38:56.005Z,96.76
2022-10-12T23:41:24.339Z,97.60
2022-10-12T23:43:51.720Z,96.73
2022-10-12T23:46:19.598Z,96.78
2022-10-12T23:48:46.933Z,97.13
2022-10-12T23:51:18.249Z,97.29
2022-10-12T23:53:46.898Z,97.64
2022-10-12T23:56:14.840Z,98.34
2022-10-12T23:58:42.365Z,97.16
